SVMI/CCS METAR and TAF weather

Enter ICAO airport designator
Station Type Date Time Source
SVMI METAR 2019/02/17 15:00 UTC NOAA

SVMI 171500Z 05003KT 9999 FEW016 27/21 Q1010


Station Type Date Time Source
SVMI Decoded METAR 2019/02/17 15:00 UTC NOAA

Caracas / Maiquetia Aerop. Intl. Simon Bolivar, Venezuela (SVMI) 10-36N 066-59W 48M
Feb 17, 2019 - 10:00 AM EST / 2019.02.17 1500 UTC
Wind: from the NE (050 degrees) at 3 MPH (3 KT):0
Visibility: greater than 7 mile(s):0
Sky conditions: mostly clear
Temperature: 80 F (27 C)
Dew Point: 69 F (21 C)
Relative Humidity: 69%
Pressure (altimeter): 29.83 in. Hg (1010 hPa)
ob: SVMI 171500Z 05003KT 9999 FEW016 27/21 Q1010
cycle: 15

Station Type Date Time Source
SVMI TAF 2019/02/17 12:03 UTC NOAA

TAF SVMI 171000Z 1712/1812 07011KT 9999 SCT016 TX30/18Z TN20/07Z
BECMG 1712/1716 05011KT


Example: see airport list